createdAt,value
2019-03-12T00:03:55.066Z,5.73
2019-03-12T00:08:59.051Z,5.60
2019-03-12T00:14:03.030Z,5.53
2019-03-12T00:19:07.121Z,4.83
2019-03-12T00:24:11.114Z,5.50
2019-03-12T00:29:15.100Z,5.97
2019-03-12T00:34:20.052Z,4.97
2019-03-12T00:39:24.046Z,3.67
2019-03-12T00:44:30.896Z,5.43
2019-03-12T00:49:34.821Z,4.70
2019-03-12T00:54:38.851Z,5.30
2019-03-12T00:59:42.842Z,5.13
2019-03-12T01:04:46.793Z,4.27
2019-03-12T01:09:50.763Z,4.13
2019-03-12T01:14:54.634Z,4.60
2019-03-12T01:19:58.491Z,4.77
2019-03-12T01:25:02.445Z,6.20
2019-03-12T01:30:07.811Z,5.77
2019-03-12T01:35:12.912Z,5.50
2019-03-12T01:40:16.836Z,6.23
2019-03-12T01:45:20.801Z,4.63
2019-03-12T01:50:24.751Z,4.77
2019-03-12T01:55:28.715Z,5.17
2019-03-12T02:00:32.734Z,6.73
2019-03-12T02:05:36.756Z,6.77
2019-03-12T02:10:40.792Z,6.37
2019-03-12T02:15:44.766Z,6.27
2019-03-12T02:20:48.731Z,5.60
2019-03-12T02:25:52.716Z,6.17
2019-03-12T02:30:56.725Z,6.83
2019-03-12T02:36:01.506Z,6.53
2019-03-12T02:41:05.436Z,7.60
2019-03-12T02:46:48.076Z,6.63
2019-03-12T02:51:51.388Z,5.63
2019-03-12T02:56:55.392Z,6.27
2019-03-12T03:01:59.349Z,7.50
2019-03-12T03:07:03.288Z,6.47
2019-03-12T03:12:07.316Z,5.80
2019-03-12T03:17:11.303Z,6.20
2019-03-12T03:22:15.203Z,7.10
2019-03-12T03:27:19.102Z,8.17
2019-03-12T03:32:23.098Z,7.57
2019-03-12T03:37:28.098Z,8.07
2019-03-12T03:42:32.096Z,7.50
2019-03-12T03:47:36.081Z,7.47
2019-03-12T03:52:40.002Z,7.73
2019-03-12T03:57:43.903Z,6.10
2019-03-12T04:02:47.980Z,8.67
2019-03-12T04:13:03.134Z,9.47
2019-03-12T04:18:07.259Z,9.70
2019-03-12T04:23:11.199Z,11.27
2019-03-12T04:28:15.157Z,8.63
2019-03-12T04:33:46.995Z,7.93
2019-03-12T04:38:51.923Z,8.10
2019-03-12T04:43:55.910Z,8.90
2019-03-12T04:48:59.922Z,7.57
2019-03-12T04:54:03.893Z,8.50
2019-03-12T04:59:07.960Z,9.50
2019-03-12T05:04:11.930Z,8.43
2019-03-12T05:09:16.169Z,9.13
2019-03-12T05:14:23.081Z,9.70
2019-03-12T05:19:28.045Z,7.43
2019-03-12T05:24:31.945Z,7.63
2019-03-12T05:29:35.860Z,6.20
2019-03-12T05:34:39.740Z,7.63
2019-03-12T05:39:44.643Z,6.23
2019-03-12T05:44:48.806Z,7.30
2019-03-12T05:49:52.713Z,6.47
2019-03-12T05:54:56.760Z,7.33
2019-03-12T06:00:00.714Z,7.20
2019-03-12T06:05:05.120Z,7.33
2019-03-12T06:10:09.475Z,8.10
2019-03-12T06:15:13.437Z,7.77
2019-03-12T06:20:17.425Z,8.60
2019-03-12T06:25:21.434Z,8.40
2019-03-12T06:30:25.985Z,7.97
2019-03-12T06:35:30.109Z,7.13
2019-03-12T06:40:34.975Z,7.83
2019-03-12T06:45:38.912Z,7.17
2019-03-12T06:50:42.895Z,8.03
2019-03-12T06:55:46.905Z,6.10
2019-03-12T07:00:50.762Z,7.12
2019-03-12T07:05:54.760Z,7.00
2019-03-12T07:10:58.692Z,9.13
2019-03-12T07:16:02.716Z,7.13
2019-03-12T07:21:06.779Z,7.40
2019-03-12T07:26:10.765Z,7.83
2019-03-12T07:31:14.752Z,8.47
2019-03-12T07:36:18.845Z,7.67
2019-03-12T07:41:31.972Z,7.27
2019-03-12T07:46:29.373Z,6.40
2019-03-12T07:51:33.366Z,2.53
2019-03-12T07:56:37.475Z,1.70
2019-03-12T08:01:41.586Z,1.47
2019-03-12T08:06:45.550Z,1.53
2019-03-12T08:11:49.694Z,2.87
2019-03-12T08:16:53.823Z,1.93
2019-03-12T08:21:57.784Z,2.30
2019-03-12T08:27:01.854Z,1.43
2019-03-12T08:32:14.834Z,1.27
2019-03-12T08:37:18.823Z,1.60
2019-03-12T08:42:23.755Z,1.23
2019-03-12T08:47:27.672Z,1.40
2019-03-12T08:52:31.642Z,2.40
2019-03-12T08:57:35.684Z,2.17
2019-03-12T09:02:39.589Z,1.50
2019-03-12T09:07:43.550Z,3.40
2019-03-12T09:12:47.511Z,1.43
2019-03-12T09:17:51.526Z,0.90
2019-03-12T09:22:55.509Z,1.80
2019-03-12T09:27:59.454Z,3.87
2019-03-12T09:33:03.479Z,1.37
2019-03-12T09:38:07.459Z,1.13
2019-03-12T09:43:12.497Z,0.30
2019-03-12T09:48:16.434Z,0.80
2019-03-12T09:53:20.363Z,1.33
2019-03-12T09:58:24.313Z,1.90
2019-03-12T10:03:28.241Z,1.90
2019-03-12T10:08:32.209Z,3.07
2019-03-12T10:13:36.210Z,1.53
2019-03-12T10:18:40.210Z,1.07
2019-03-12T10:23:44.093Z,2.00
2019-03-12T10:28:48.019Z,1.40
2019-03-12T10:33:52.031Z,0.97
2019-03-12T10:39:14.096Z,0.90
2019-03-12T10:44:18.133Z,1.90
2019-03-12T10:49:22.113Z,1.87
2019-03-12T10:54:26.122Z,1.20
2019-03-12T10:59:30.079Z,1.17
2019-03-12T11:04:34.035Z,0.70
2019-03-12T11:09:38.159Z,1.20
2019-03-12T11:14:42.186Z,0.83
2019-03-12T11:19:46.158Z,1.23
2019-03-12T11:24:50.017Z,1.53
2019-03-12T11:29:56.186Z,1.70
2019-03-12T11:35:00.171Z,1.60
2019-03-12T11:40:05.966Z,1.60
2019-03-12T11:45:16.174Z,1.40
2019-03-12T11:50:17.631Z,1.73
2019-03-12T11:55:21.570Z,1.43
2019-03-12T12:00:25.649Z,2.73
2019-03-12T12:05:29.598Z,1.87
2019-03-12T12:10:33.720Z,1.50
2019-03-12T12:15:37.909Z,2.30
2019-03-12T12:20:41.823Z,1.10
2019-03-12T12:25:45.833Z,0.97
2019-03-12T12:30:49.967Z,1.40
2019-03-12T12:35:54.022Z,1.10
2019-03-12T12:40:57.973Z,1.00
2019-03-12T12:46:02.018Z,1.73
2019-03-12T12:51:05.958Z,2.03
2019-03-12T12:56:10.479Z,1.50
2019-03-12T13:01:14.471Z,1.90
2019-03-12T13:06:18.722Z,1.50
2019-03-12T13:11:25.561Z,1.70
2019-03-12T13:16:32.047Z,1.80
2019-03-12T13:21:35.991Z,2.73
2019-03-12T13:26:40.017Z,2.63
2019-03-12T13:31:44.028Z,1.37
2019-03-12T13:36:48.014Z,2.40
2019-03-12T13:41:52.038Z,1.47
2019-03-12T13:46:56.921Z,3.33
2019-03-12T13:52:00.898Z,1.60
2019-03-12T13:57:04.828Z,2.17
2019-03-12T14:02:08.798Z,1.90
2019-03-12T14:07:12.730Z,2.10
2019-03-12T14:12:16.644Z,3.93
2019-03-12T14:17:20.563Z,2.47
2019-03-12T14:22:24.627Z,2.93
2019-03-12T14:27:28.543Z,2.10
2019-03-12T14:32:32.632Z,2.07
2019-03-12T14:37:36.548Z,1.83
2019-03-12T14:42:40.533Z,2.57
2019-03-12T14:47:44.678Z,2.37
2019-03-12T14:52:51.048Z,2.07
2019-03-12T14:57:54.914Z,3.10
2019-03-12T15:02:58.953Z,2.53
2019-03-12T15:08:03.047Z,1.37
2019-03-12T15:13:07.113Z,2.00
2019-03-12T15:18:11.134Z,2.37
2019-03-12T15:23:15.551Z,1.40
2019-03-12T15:28:19.573Z,2.07
2019-03-12T15:33:23.626Z,2.93
2019-03-12T15:38:27.553Z,3.70
2019-03-12T15:43:31.437Z,3.07
2019-03-12T15:48:35.378Z,3.37
2019-03-12T15:53:39.374Z,3.73
2019-03-12T15:58:43.344Z,3.57
2019-03-12T16:03:47.303Z,3.23
2019-03-12T16:08:51.223Z,4.10
2019-03-12T16:13:55.435Z,3.20
2019-03-12T16:18:59.478Z,4.33
2019-03-12T16:24:03.463Z,3.37
2019-03-12T16:29:07.385Z,2.53
2019-03-12T16:34:11.364Z,3.83
2019-03-12T16:39:15.343Z,3.37
2019-03-12T16:44:19.384Z,3.57
2019-03-12T16:49:23.371Z,2.83
2019-03-12T16:54:27.470Z,4.63
2019-03-12T16:59:31.367Z,2.50
2019-03-12T17:04:35.380Z,2.93
2019-03-12T17:09:39.402Z,3.30
2019-03-12T17:14:43.968Z,3.20
2019-03-12T17:19:50.604Z,3.50
2019-03-12T17:24:54.642Z,5.50
2019-03-12T17:29:58.677Z,4.47
2019-03-12T17:35:02.775Z,3.87
2019-03-12T17:40:10.255Z,5.17
2019-03-12T17:45:14.378Z,5.20
2019-03-12T17:50:20.622Z,3.50
2019-03-12T17:55:24.848Z,3.20
2019-03-12T18:00:28.901Z,2.10
2019-03-12T18:05:33.143Z,2.57
2019-03-12T18:10:37.355Z,3.33
2019-03-12T18:15:41.783Z,2.53
2019-03-12T18:20:46.023Z,2.70
2019-03-12T18:25:50.477Z,4.00
2019-03-12T18:30:54.727Z,4.37
2019-03-12T18:35:58.947Z,6.83
2019-03-12T18:46:09.373Z,3.73
2019-03-12T18:51:15.700Z,4.10
2019-03-12T18:56:19.811Z,6.27
2019-03-12T19:01:23.914Z,4.23
2019-03-12T19:06:28.037Z,4.80
2019-03-12T19:11:32.501Z,2.70
2019-03-12T19:16:37.934Z,2.47
2019-03-12T19:21:42.057Z,3.90
2019-03-12T19:26:46.196Z,2.90
2019-03-12T19:31:50.372Z,3.30
2019-03-12T19:36:54.710Z,4.50
2019-03-12T19:41:59.915Z,2.83
2019-03-12T19:47:04.768Z,3.80
2019-03-12T19:52:09.251Z,5.33
2019-03-12T19:57:13.421Z,5.80
2019-03-12T20:02:17.995Z,3.93
2019-03-12T20:07:22.397Z,5.23
2019-03-12T20:12:42.509Z,4.70
2019-03-12T20:18:11.343Z,5.70
2019-03-12T20:23:33.051Z,3.30
2019-03-12T20:28:55.967Z,3.83
2019-03-12T20:34:26.701Z,4.13
2019-03-12T20:39:41.326Z,3.97
2019-03-12T20:45:03.199Z,4.20
2019-03-12T20:50:25.116Z,4.00
2019-03-12T20:55:50.331Z,4.43
2019-03-12T21:01:28.007Z,4.77
2019-03-12T21:06:53.968Z,4.80
2019-03-12T21:12:17.880Z,6.20
2019-03-12T21:17:32.037Z,6.67
2019-03-12T21:22:47.848Z,5.43
2019-03-12T21:28:07.538Z,6.03
2019-03-12T21:33:15.614Z,5.07
2019-03-12T21:38:17.647Z,6.10
2019-03-12T21:43:21.719Z,5.07
2019-03-12T21:48:25.984Z,4.97
2019-03-12T21:53:30.061Z,4.87
2019-03-12T21:58:34.150Z,4.57
2019-03-12T22:03:38.196Z,4.57
2019-03-12T22:08:42.258Z,6.07
2019-03-12T22:13:46.276Z,5.67
2019-03-12T22:18:50.355Z,5.77
2019-03-12T22:23:55.563Z,4.73
2019-03-12T22:28:59.630Z,5.13
2019-03-12T22:34:03.866Z,6.57
2019-03-12T22:39:07.863Z,4.53
2019-03-12T22:44:11.859Z,4.57
2019-03-12T22:49:16.147Z,2.70
2019-03-12T22:54:20.172Z,4.00
2019-03-12T22:59:24.118Z,4.23
2019-03-12T23:04:28.167Z,4.30
2019-03-12T23:09:32.245Z,3.90
2019-03-12T23:14:36.251Z,5.37
2019-03-12T23:19:40.517Z,5.07
2019-03-12T23:24:44.722Z,5.03
2019-03-12T23:29:49.067Z,4.73
2019-03-12T23:34:53.397Z,5.60
2019-03-12T23:39:57.406Z,7.27
2019-03-12T23:45:01.565Z,7.40
2019-03-12T23:50:06.418Z,4.47
2019-03-12T23:55:10.795Z,4.80
